首页
METAR-TAF:

METAR-TAF

机场 :

格拉斯哥机场

格拉斯哥, 苏格兰

纬度: 55-52N, 经度: 004-26W, 海拔: 8米

当前天气观测

该预报发布于30分钟前的06:50 UTC
风速17节,风向西南
温度 7°C
湿度 81%
气压 987 hPa
能见度10公里或以上
散云层高于3100英尺
多云层高于3700英尺
小雨

METAR: EGPF 170650Z AUTO 23017KT 9999 -RA SCT031 BKN037 07/04 Q0987

时间: 07:20 (07:20 UTC)

预报

该预报发布于2小时和26分钟前的04:54 UTC
预报有效从17日的 06点(UTC)到 18日的 06点(UTC)
风速15节,风向西转西南
能见度10公里或以上
散云层高于2000英尺
短暂存在
从 17日的 06点(UTC)到 18日的 06点(UTC)
风速22节,风向西,有时为35节阵风
能見度: 7000
多云层高于1400英尺
阵雨

TAF: EGPF 170454Z 1706/1806 25015KT 9999 SCT020 TEMPO 1706/1806 26022G35KT 7000 SHRA BKN014

超过4000个机场的气象观测和天气预报(METAR&TAF报告)。

可查询的气象台以黄色和红色小点在地图上表示。

将鼠标移到小点上方,可查看气象台名称。

然后点击查看天气观测和预报。

如需切换地图:点击带黑十字的绿色按钮放大地图;点击带横线的绿色按钮缩小地图;或者点击绿色箭头查看邻近地区的地图。


METAR-TAF: